Terminal Aerodrome Forecast
Issued by NWS Sioux Falls, SD

Home | Current Version | Previous Version | Text Only | Print | Product List | Glossary Off
Versions: 1 2 3 4 5 6 7 8 9 10 11 12 13 14 15 16 17 18 19 20 21 22 23 24 25 26 27

000
FTUS43 KFSD 020500
TAFSUX
TAF
KSUX 020538Z 0206/0306 VRB03KT P6SM BKN200
     FM021000 11004KT 4SM BR SCT200
      TEMPO 0211/0213 2SM BR
     FM021330 14008KT P6SM BKN140
     FM021600 19010KT P6SM SCT060
     FM030000 12007KT P6SM SCT080=

USA.gov is the U.S. government's official web portal to all federal, state and local government web resources and services.